Houn Maru — JG5489 — position and weather

sailwx.info

Track history (hours):
 
Tides and Currents Weather Stations Pressure Air Temp Water Temp Dewpoint Dewpoint Depression Visibility Wind Speed Wind Dir Waves Ship Positions

Houn Maru

Last reported at 2014-Oct-29 23:33 UTC. Time now 2014-Nov-01 06:17 UTC.
Position N 34°32' E 135°23'.

Length 91 m; draft 4.5 m.

Type: Tanker. MMSI: 431101172.

Date/timePositionNaut miles runAvg speedWind from/ knotsBaromVisibWave heightAir tempDewpointWater temp
2014-Oct-29 23:33N 34°32' E 135°23'4 3.3
2014-Oct-29 22:25N 34°32' E 135°19'0 0.0
2014-Oct-29 21:31N 34°32' E 135°19'0 0.0
2014-Oct-29 20:19N 34°32' E 135°19'0 0.1
2014-Oct-29 19:31N 34°32' E 135°19'0 0.0
2014-Oct-29 18:13N 34°32' E 135°19'0 0.1
2014-Oct-29 17:31N 34°32' E 135°19'0 0.0
2014-Oct-29 16:19N 34°32' E 135°19'0 0.1
2014-Oct-29 15:31N 34°32' E 135°19'0 0.0
2014-Oct-29 14:24N 34°32' E 135°19'0 0.0
2014-Oct-29 13:31N 34°32' E 135°19'0 0.0
2014-Oct-29 12:30N 34°32' E 135°19'0 0.0
2014-Oct-29 11:13N 34°32' E 135°19'0 0.0
2014-Oct-29 10:30N 34°32' E 135°19'0 0.0
2014-Oct-29 09:30N 34°32' E 135°19'0 0.0
2014-Oct-29 08:18N 34°32' E 135°19'0 0.1
2014-Oct-29 07:33N 34°32' E 135°19'1010.0
2014-Oct-29 06:33N 34°24' E 135°12'2 0.3
2014-Oct-29 01:33N 34°25' E 135°14'2 1.9
2014-Oct-29 00:32N 34°23' E 135°12'0 0.0
2014-Oct-28 23:20N 34°23' E 135°12'0 0.0
2014-Oct-28 22:32N 34°23' E 135°12'0 0.0
2014-Oct-28 21:33N 34°23' E 135°12'7 7.4
2014-Oct-28 20:33N 34°28' E 135°06'1110.6
2014-Oct-28 19:32N 34°36' E 134°56'1 0.0
2014-Oct-27 07:08N 34°36' E 134°56'5 9.3
2014-Oct-27 06:33N 34°37' E 135°02'10 9.5
2014-Oct-27 05:33N 34°28' E 135°08'6 6.2
2014-Oct-27 04:33N 34°25' E 135°14'0 0.0
2014-Oct-27 00:12N 34°25' E 135°14'2 1.2
2014-Oct-26 22:24N 34°23' E 135°13'0 0.1
2014-Oct-26 21:33N 34°23' E 135°13'0 0.0
2014-Oct-26 20:33N 34°23' E 135°13'0 0.0
2014-Oct-26 19:33N 34°23' E 135°13'0 0.0
2014-Oct-26 18:33N 34°23' E 135°13'0 0.1
2014-Oct-26 17:29N 34°23' E 135°13'0 0.1
2014-Oct-26 16:33N 34°23' E 135°13'0 0.0
2014-Oct-26 15:33N 34°23' E 135°13'0 0.0
2014-Oct-26 14:33N 34°23' E 135°13'0 0.0
2014-Oct-26 13:33N 34°23' E 135°13'5 4.5
2014-Oct-26 12:33N 34°27' E 135°09'1110.7
2014-Oct-26 11:33N 34°36' E 135°02'10 0.3
2014-Oct-25 01:07N 34°34' E 134°51'915.4
2014-Oct-25 00:33N 34°38' E 135°01'1313.3
2014-Oct-24 23:33N 34°36' E 135°17'9 0.6
2014-Oct-24 08:24N 34°35' E 135°27'4 4.8
2014-Oct-24 07:33N 34°36' E 135°22'4 3.8
2014-Oct-24 06:33N 34°33' E 135°25'1 0.1
2014-Oct-23 23:33N 34°33' E 135°24'4 4.1
2014-Oct-23 22:28N 34°32' E 135°19'0 0.0
2014-Oct-23 21:28N 34°32' E 135°19'0 0.0
2014-Oct-23 19:22N 34°32' E 135°19'0 0.0
2014-Oct-23 17:28N 34°32' E 135°19'0 0.0
2014-Oct-23 16:28N 34°32' E 135°19'0 0.0
2014-Oct-23 15:28N 34°32' E 135°19'3 3.7
2014-Oct-23 14:33N 34°33' E 135°15'1111.4
2014-Oct-23 13:33N 34°36' E 135°02'1 0.0
2014-Oct-22 06:33N 34°37' E 135°01'1010.5
2014-Oct-22 05:33N 34°29' E 135°08'6 1.2
2014-Oct-22 00:12N 34°25' E 135°14'2 2.7
2014-Oct-21 23:22N 34°23' E 135°13'0 0.1
2014-Oct-21 22:31N 34°23' E 135°13'0 0.1
2014-Oct-21 21:31N 34°23' E 135°13'0 0.1
2014-Oct-21 20:31N 34°23' E 135°13'0 0.0
2014-Oct-21 19:25N 34°23' E 135°13'0 0.1
2014-Oct-21 18:31N 34°23' E 135°13'0 0.1
2014-Oct-21 17:34N 34°23' E 135°13'1111.2
2014-Oct-21 16:33N 34°33' E 135°05'16 0.5
2014-Oct-20 09:11N 34°34' E 134°46'915.1
2014-Oct-20 08:33N 34°37' E 134°57'1212.1
2014-Oct-20 07:33N 34°30' E 135°09'6 6.5
2014-Oct-20 06:33N 34°25' E 135°14'2 0.4
2014-Oct-20 01:34N 34°23' E 135°12'9 9.4
2014-Oct-20 00:33N 34°31' E 135°19'  
Track history (hours):
 
Tides and Currents Weather Stations Pressure Air Temp Water Temp Dewpoint Dewpoint Depression Visibility Wind Speed Wind Dir Waves Ship Positions

Houn Maru

Last reported at 2014-Oct-29 23:33 UTC. Time now 2014-Nov-01 06:17 UTC.
Position N 34°32' E 135°23'.

Length 91 m; draft 4.5 m.

Type: Tanker. MMSI: 431101172.

Date/timePositionNaut miles runAvg speedWind from/ knotsBaromVisibWave heightAir tempDewpointWater temp
2014-Oct-29 23:33N 34°32' E 135°23'4 3.3
2014-Oct-29 22:25N 34°32' E 135°19'0 0.0
2014-Oct-29 21:31N 34°32' E 135°19'0 0.0
2014-Oct-29 20:19N 34°32' E 135°19'0 0.1
2014-Oct-29 19:31N 34°32' E 135°19'0 0.0
2014-Oct-29 18:13N 34°32' E 135°19'0 0.1
2014-Oct-29 17:31N 34°32' E 135°19'0 0.0
2014-Oct-29 16:19N 34°32' E 135°19'0 0.1
2014-Oct-29 15:31N 34°32' E 135°19'0 0.0
2014-Oct-29 14:24N 34°32' E 135°19'0 0.0
2014-Oct-29 13:31N 34°32' E 135°19'0 0.0
2014-Oct-29 12:30N 34°32' E 135°19'0 0.0
2014-Oct-29 11:13N 34°32' E 135°19'0 0.0
2014-Oct-29 10:30N 34°32' E 135°19'0 0.0
2014-Oct-29 09:30N 34°32' E 135°19'0 0.0
2014-Oct-29 08:18N 34°32' E 135°19'0 0.1
2014-Oct-29 07:33N 34°32' E 135°19'1010.0
2014-Oct-29 06:33N 34°24' E 135°12'2 0.3
2014-Oct-29 01:33N 34°25' E 135°14'2 1.9
2014-Oct-29 00:32N 34°23' E 135°12'0 0.0
2014-Oct-28 23:20N 34°23' E 135°12'0 0.0
2014-Oct-28 22:32N 34°23' E 135°12'0 0.0
2014-Oct-28 21:33N 34°23' E 135°12'7 7.4
2014-Oct-28 20:33N 34°28' E 135°06'1110.6
2014-Oct-28 19:32N 34°36' E 134°56'1 0.0
2014-Oct-27 07:08N 34°36' E 134°56'5 9.3
2014-Oct-27 06:33N 34°37' E 135°02'10 9.5
2014-Oct-27 05:33N 34°28' E 135°08'6 6.2
2014-Oct-27 04:33N 34°25' E 135°14'0 0.0
2014-Oct-27 00:12N 34°25' E 135°14'2 1.2
2014-Oct-26 22:24N 34°23' E 135°13'0 0.1
2014-Oct-26 21:33N 34°23' E 135°13'0 0.0
2014-Oct-26 20:33N 34°23' E 135°13'0 0.0
2014-Oct-26 19:33N 34°23' E 135°13'0 0.0
2014-Oct-26 18:33N 34°23' E 135°13'0 0.1
2014-Oct-26 17:29N 34°23' E 135°13'0 0.1
2014-Oct-26 16:33N 34°23' E 135°13'0 0.0
2014-Oct-26 15:33N 34°23' E 135°13'0 0.0
2014-Oct-26 14:33N 34°23' E 135°13'0 0.0
2014-Oct-26 13:33N 34°23' E 135°13'5 4.5
2014-Oct-26 12:33N 34°27' E 135°09'1110.7
2014-Oct-26 11:33N 34°36' E 135°02'10 0.3
2014-Oct-25 01:07N 34°34' E 134°51'915.4
2014-Oct-25 00:33N 34°38' E 135°01'1313.3
2014-Oct-24 23:33N 34°36' E 135°17'9 0.6
2014-Oct-24 08:24N 34°35' E 135°27'4 4.8
2014-Oct-24 07:33N 34°36' E 135°22'4 3.8
2014-Oct-24 06:33N 34°33' E 135°25'1 0.1
2014-Oct-23 23:33N 34°33' E 135°24'4 4.1
2014-Oct-23 22:28N 34°32' E 135°19'0 0.0
2014-Oct-23 21:28N 34°32' E 135°19'0 0.0
2014-Oct-23 19:22N 34°32' E 135°19'0 0.0
2014-Oct-23 17:28N 34°32' E 135°19'0 0.0
2014-Oct-23 16:28N 34°32' E 135°19'0 0.0
2014-Oct-23 15:28N 34°32' E 135°19'3 3.7
2014-Oct-23 14:33N 34°33' E 135°15'1111.4
2014-Oct-23 13:33N 34°36' E 135°02'1 0.0
2014-Oct-22 06:33N 34°37' E 135°01'1010.5
2014-Oct-22 05:33N 34°29' E 135°08'6 1.2
2014-Oct-22 00:12N 34°25' E 135°14'2 2.7
2014-Oct-21 23:22N 34°23' E 135°13'0 0.1
2014-Oct-21 22:31N 34°23' E 135°13'0 0.1
2014-Oct-21 21:31N 34°23' E 135°13'0 0.1
2014-Oct-21 20:31N 34°23' E 135°13'0 0.0
2014-Oct-21 19:25N 34°23' E 135°13'0 0.1
2014-Oct-21 18:31N 34°23' E 135°13'0 0.1
2014-Oct-21 17:34N 34°23' E 135°13'1111.2
2014-Oct-21 16:33N 34°33' E 135°05'16 0.5
2014-Oct-20 09:11N 34°34' E 134°46'915.1
2014-Oct-20 08:33N 34°37' E 134°57'1212.1
2014-Oct-20 07:33N 34°30' E 135°09'6 6.5
2014-Oct-20 06:33N 34°25' E 135°14'2 0.4
2014-Oct-20 01:34N 34°23' E 135°12'9 9.4
2014-Oct-20 00:33N 34°31' E 135°19'  

Dump ship's entire track history